sensor_id;sensor_type;location;lat;lon;timestamp;P1;durP1;ratioP1;P2;durP2;ratioP2
10041;SDS011;5061;49.068;12.058;2023-03-14T00:01:33;0.80;;;0.80;;
10041;SDS011;5061;49.068;12.058;2023-03-14T00:04:54;1.17;;;0.87;;
10041;SDS011;5061;49.068;12.058;2023-03-14T00:08:16;2.93;;;0.83;;
10041;SDS011;5061;49.068;12.058;2023-03-14T00:11:37;1.10;;;0.80;;
10041;SDS011;5061;49.068;12.058;2023-03-14T00:14:58;1.07;;;0.90;;
10041;SDS011;5061;49.068;12.058;2023-03-14T00:18:20;1.00;;;0.90;;
10041;SDS011;5061;49.068;12.058;2023-03-14T00:21:40;2.07;;;0.93;;
10041;SDS011;5061;49.068;12.058;2023-03-14T00:25:01;0.83;;;0.77;;
10041;SDS011;5061;49.068;12.058;2023-03-14T00:28:22;1.13;;;0.80;;
10041;SDS011;5061;49.068;12.058;2023-03-14T00:31:43;0.70;;;0.70;;
10041;SDS011;5061;49.068;12.058;2023-03-14T00:35:04;1.00;;;0.80;;
10041;SDS011;5061;49.068;12.058;2023-03-14T00:38:25;0.83;;;0.83;;
10041;SDS011;5061;49.068;12.058;2023-03-14T00:41:47;0.80;;;0.80;;
10041;SDS011;5061;49.068;12.058;2023-03-14T00:45:07;0.83;;;0.70;;
10041;SDS011;5061;49.068;12.058;2023-03-14T00:48:30;0.73;;;0.70;;
10041;SDS011;5061;49.068;12.058;2023-03-14T00:51:50;0.80;;;0.80;;
10041;SDS011;5061;49.068;12.058;2023-03-14T00:55:11;0.80;;;0.80;;
10041;SDS011;5061;49.068;12.058;2023-03-14T00:58:32;0.90;;;0.70;;
10041;SDS011;5061;49.068;12.058;2023-03-14T01:01:52;0.93;;;0.80;;
10041;SDS011;5061;49.068;12.058;2023-03-14T01:05:13;0.80;;;0.70;;
10041;SDS011;5061;49.068;12.058;2023-03-14T01:08:34;0.70;;;0.70;;
10041;SDS011;5061;49.068;12.058;2023-03-14T01:11:54;0.80;;;0.70;;
10041;SDS011;5061;49.068;12.058;2023-03-14T01:15:15;2.00;;;0.80;;
10041;SDS011;5061;49.068;12.058;2023-03-14T01:18:36;0.80;;;0.80;;
10041;SDS011;5061;49.068;12.058;2023-03-14T01:21:58;0.80;;;0.70;;
10041;SDS011;5061;49.068;12.058;2023-03-14T01:25:18;2.30;;;0.70;;
10041;SDS011;5061;49.068;12.058;2023-03-14T01:28:39;0.70;;;0.70;;
10041;SDS011;5061;49.068;12.058;2023-03-14T01:32:00;1.47;;;0.60;;
10041;SDS011;5061;49.068;12.058;2023-03-14T01:35:21;0.90;;;0.80;;
10041;SDS011;5061;49.068;12.058;2023-03-14T01:38:41;0.80;;;0.70;;
10041;SDS011;5061;49.068;12.058;2023-03-14T01:42:02;1.20;;;0.80;;
10041;SDS011;5061;49.068;12.058;2023-03-14T01:52:47;0.80;;;0.73;;
10041;SDS011;5061;49.068;12.058;2023-03-14T01:56:13;1.10;;;0.70;;
10041;SDS011;5061;49.068;12.058;2023-03-14T01:59:35;0.83;;;0.80;;
10041;SDS011;5061;49.068;12.058;2023-03-14T02:03:02;0.80;;;0.70;;
10041;SDS011;5061;49.068;12.058;2023-03-14T02:06:36;1.07;;;0.80;;
10041;SDS011;5061;49.068;12.058;2023-03-14T02:10:06;0.80;;;0.70;;
10041;SDS011;5061;49.068;12.058;2023-03-14T02:13:28;2.10;;;0.70;;
10041;SDS011;5061;49.068;12.058;2023-03-14T02:16:48;0.70;;;0.70;;
10041;SDS011;5061;49.068;12.058;2023-03-14T02:27:18;0.80;;;0.70;;
10041;SDS011;5061;49.068;12.058;2023-03-14T02:30:39;2.30;;;0.80;;
10041;SDS011;5061;49.068;12.058;2023-03-14T02:34:00;0.80;;;0.70;;
10041;SDS011;5061;49.068;12.058;2023-03-14T02:37:23;0.70;;;0.70;;
10041;SDS011;5061;49.068;12.058;2023-03-14T02:40:48;0.70;;;0.70;;
10041;SDS011;5061;49.068;12.058;2023-03-14T02:44:09;0.80;;;0.60;;
10041;SDS011;5061;49.068;12.058;2023-03-14T02:47:30;0.70;;;0.70;;
10041;SDS011;5061;49.068;12.058;2023-03-14T02:50:52;1.20;;;0.80;;
10041;SDS011;5061;49.068;12.058;2023-03-14T02:54:16;1.13;;;0.70;;
10041;SDS011;5061;49.068;12.058;2023-03-14T02:57:39;1.00;;;0.70;;
10041;SDS011;5061;49.068;12.058;2023-03-14T03:01:00;0.70;;;0.60;;
10041;SDS011;5061;49.068;12.058;2023-03-14T03:04:20;0.80;;;0.70;;
10041;SDS011;5061;49.068;12.058;2023-03-14T03:07:41;0.70;;;0.70;;
10041;SDS011;5061;49.068;12.058;2023-03-14T03:11:02;0.80;;;0.70;;
10041;SDS011;5061;49.068;12.058;2023-03-14T03:14:22;1.10;;;0.70;;
10041;SDS011;5061;49.068;12.058;2023-03-14T03:17:43;0.70;;;0.60;;
10041;SDS011;5061;49.068;12.058;2023-03-14T03:21:04;0.70;;;0.70;;
10041;SDS011;5061;49.068;12.058;2023-03-14T03:24:25;0.70;;;0.70;;
10041;SDS011;5061;49.068;12.058;2023-03-14T03:27:47;0.90;;;0.70;;
10041;SDS011;5061;49.068;12.058;2023-03-14T03:31:10;0.70;;;0.60;;
10041;SDS011;5061;49.068;12.058;2023-03-14T03:34:31;1.57;;;0.70;;
10041;SDS011;5061;49.068;12.058;2023-03-14T03:37:52;1.10;;;0.70;;
10041;SDS011;5061;49.068;12.058;2023-03-14T03:41:13;0.93;;;0.83;;
10041;SDS011;5061;49.068;12.058;2023-03-14T03:44:33;0.90;;;0.70;;
10041;SDS011;5061;49.068;12.058;2023-03-14T03:47:54;0.77;;;0.73;;
10041;SDS011;5061;49.068;12.058;2023-03-14T03:51:15;0.80;;;0.70;;
10041;SDS011;5061;49.068;12.058;2023-03-14T03:54:36;1.00;;;0.70;;
10041;SDS011;5061;49.068;12.058;2023-03-14T03:57:57;0.80;;;0.70;;
10041;SDS011;5061;49.068;12.058;2023-03-14T04:01:17;0.73;;;0.73;;
10041;SDS011;5061;49.068;12.058;2023-03-14T04:04:38;0.80;;;0.73;;
10041;SDS011;5061;49.068;12.058;2023-03-14T04:07:58;0.70;;;0.70;;
10041;SDS011;5061;49.068;12.058;2023-03-14T04:11:19;1.40;;;0.73;;
10041;SDS011;5061;49.068;12.058;2023-03-14T04:14:40;0.70;;;0.70;;
10041;SDS011;5061;49.068;12.058;2023-03-14T04:18:01;0.80;;;0.70;;
10041;SDS011;5061;49.068;12.058;2023-03-14T04:21:21;1.30;;;0.70;;
10041;SDS011;5061;49.068;12.058;2023-03-14T04:24:42;1.40;;;0.90;;
10041;SDS011;5061;49.068;12.058;2023-03-14T04:28:02;0.70;;;0.70;;
10041;SDS011;5061;49.068;12.058;2023-03-14T04:31:23;0.80;;;0.80;;
10041;SDS011;5061;49.068;12.058;2023-03-14T04:34:44;0.70;;;0.70;;
10041;SDS011;5061;49.068;12.058;2023-03-14T04:38:05;0.70;;;0.70;;
10041;SDS011;5061;49.068;12.058;2023-03-14T04:41:26;0.80;;;0.70;;
10041;SDS011;5061;49.068;12.058;2023-03-14T04:44:46;1.10;;;0.70;;
10041;SDS011;5061;49.068;12.058;2023-03-14T04:48:09;2.10;;;0.70;;
10041;SDS011;5061;49.068;12.058;2023-03-14T04:51:29;1.13;;;0.73;;
10041;SDS011;5061;49.068;12.058;2023-03-14T04:54:50;1.00;;;0.70;;
10041;SDS011;5061;49.068;12.058;2023-03-14T04:58:11;1.10;;;0.60;;
10041;SDS011;5061;49.068;12.058;2023-03-14T05:01:31;1.50;;;0.80;;
10041;SDS011;5061;49.068;12.058;2023-03-14T05:04:52;1.33;;;0.70;;
10041;SDS011;5061;49.068;12.058;2023-03-14T05:08:12;0.70;;;0.70;;
10041;SDS011;5061;49.068;12.058;2023-03-14T05:11:33;0.80;;;0.70;;
10041;SDS011;5061;49.068;12.058;2023-03-14T05:14:54;0.80;;;0.70;;
10041;SDS011;5061;49.068;12.058;2023-03-14T05:18:14;0.90;;;0.80;;
10041;SDS011;5061;49.068;12.058;2023-03-14T05:21:35;0.70;;;0.60;;
10041;SDS011;5061;49.068;12.058;2023-03-14T05:24:55;0.80;;;0.70;;
10041;SDS011;5061;49.068;12.058;2023-03-14T05:28:18;0.80;;;0.80;;
10041;SDS011;5061;49.068;12.058;2023-03-14T05:31:39;0.70;;;0.60;;
10041;SDS011;5061;49.068;12.058;2023-03-14T05:35:00;1.00;;;0.60;;
10041;SDS011;5061;49.068;12.058;2023-03-14T05:38:20;1.83;;;0.70;;
10041;SDS011;5061;49.068;12.058;2023-03-14T05:41:42;0.80;;;0.70;;
10041;SDS011;5061;49.068;12.058;2023-03-14T05:45:02;0.90;;;0.70;;
10041;SDS011;5061;49.068;12.058;2023-03-14T05:48:23;0.80;;;0.70;;
10041;SDS011;5061;49.068;12.058;2023-03-14T05:51:44;0.80;;;0.70;;
10041;SDS011;5061;49.068;12.058;2023-03-14T05:55:04;2.13;;;0.70;;
10041;SDS011;5061;49.068;12.058;2023-03-14T05:58:25;0.80;;;0.80;;
10041;SDS011;5061;49.068;12.058;2023-03-14T06:01:46;0.90;;;0.70;;
10041;SDS011;5061;49.068;12.058;2023-03-14T06:05:07;6.43;;;0.80;;
10041;SDS011;5061;49.068;12.058;2023-03-14T06:08:27;0.80;;;0.80;;
10041;SDS011;5061;49.068;12.058;2023-03-14T06:11:48;0.80;;;0.70;;
10041;SDS011;5061;49.068;12.058;2023-03-14T06:15:09;0.80;;;0.70;;
10041;SDS011;5061;49.068;12.058;2023-03-14T06:18:30;0.90;;;0.73;;
10041;SDS011;5061;49.068;12.058;2023-03-14T06:21:52;0.80;;;0.70;;
10041;SDS011;5061;49.068;12.058;2023-03-14T06:25:12;0.70;;;0.70;;
10041;SDS011;5061;49.068;12.058;2023-03-14T06:28:33;0.90;;;0.80;;
10041;SDS011;5061;49.068;12.058;2023-03-14T06:31:53;1.10;;;0.90;;
10041;SDS011;5061;49.068;12.058;2023-03-14T06:35:14;0.70;;;0.70;;
10041;SDS011;5061;49.068;12.058;2023-03-14T06:38:35;1.40;;;1.07;;
10041;SDS011;5061;49.068;12.058;2023-03-14T06:41:55;1.30;;;1.20;;
10041;SDS011;5061;49.068;12.058;2023-03-14T06:45:16;1.00;;;0.90;;
10041;SDS011;5061;49.068;12.058;2023-03-14T06:48:36;1.20;;;1.10;;
10041;SDS011;5061;49.068;12.058;2023-03-14T06:51:57;1.20;;;1.10;;
10041;SDS011;5061;49.068;12.058;2023-03-14T06:55:18;0.87;;;0.87;;
10041;SDS011;5061;49.068;12.058;2023-03-14T06:58:38;0.80;;;0.80;;
10041;SDS011;5061;49.068;12.058;2023-03-14T07:01:59;1.00;;;0.90;;
10041;SDS011;5061;49.068;12.058;2023-03-14T07:05:19;1.10;;;0.80;;
10041;SDS011;5061;49.068;12.058;2023-03-14T07:08:40;0.80;;;0.73;;
10041;SDS011;5061;49.068;12.058;2023-03-14T07:12:02;0.97;;;0.80;;
10041;SDS011;5061;49.068;12.058;2023-03-14T07:15:24;1.33;;;0.70;;
10041;SDS011;5061;49.068;12.058;2023-03-14T07:18:44;2.50;;;1.00;;
10041;SDS011;5061;49.068;12.058;2023-03-14T07:22:05;0.80;;;0.73;;
10041;SDS011;5061;49.068;12.058;2023-03-14T07:25:26;0.80;;;0.80;;
10041;SDS011;5061;49.068;12.058;2023-03-14T07:28:46;0.70;;;0.70;;
10041;SDS011;5061;49.068;12.058;2023-03-14T07:32:07;1.03;;;0.87;;
10041;SDS011;5061;49.068;12.058;2023-03-14T07:35:28;0.80;;;0.70;;
10041;SDS011;5061;49.068;12.058;2023-03-14T07:38:48;0.87;;;0.80;;
10041;SDS011;5061;49.068;12.058;2023-03-14T07:42:09;0.70;;;0.70;;
10041;SDS011;5061;49.068;12.058;2023-03-14T07:45:30;2.60;;;0.70;;
10041;SDS011;5061;49.068;12.058;2023-03-14T07:48:51;0.90;;;0.80;;
10041;SDS011;5061;49.068;12.058;2023-03-14T07:52:12;0.80;;;0.80;;
10041;SDS011;5061;49.068;12.058;2023-03-14T07:55:32;0.90;;;0.80;;
10041;SDS011;5061;49.068;12.058;2023-03-14T07:58:53;0.87;;;0.80;;
10041;SDS011;5061;49.068;12.058;2023-03-14T08:02:13;0.80;;;0.70;;
10041;SDS011;5061;49.068;12.058;2023-03-14T08:05:35;0.93;;;0.87;;
10041;SDS011;5061;49.068;12.058;2023-03-14T08:08:56;0.80;;;0.80;;
10041;SDS011;5061;49.068;12.058;2023-03-14T08:12:16;0.90;;;0.70;;
10041;SDS011;5061;49.068;12.058;2023-03-14T08:15:37;0.87;;;0.77;;
10041;SDS011;5061;49.068;12.058;2023-03-14T08:18:58;1.93;;;0.70;;
10041;SDS011;5061;49.068;12.058;2023-03-14T08:22:18;1.40;;;0.70;;
10041;SDS011;5061;49.068;12.058;2023-03-14T08:25:39;4.60;;;0.80;;
10041;SDS011;5061;49.068;12.058;2023-03-14T08:29:05;0.70;;;0.67;;
10041;SDS011;5061;49.068;12.058;2023-03-14T08:32:28;2.20;;;0.90;;
10041;SDS011;5061;49.068;12.058;2023-03-14T08:35:51;1.00;;;0.80;;
10041;SDS011;5061;49.068;12.058;2023-03-14T08:39:13;0.77;;;0.73;;
10041;SDS011;5061;49.068;12.058;2023-03-14T08:42:33;1.87;;;0.70;;
10041;SDS011;5061;49.068;12.058;2023-03-14T08:45:57;0.83;;;0.80;;
10041;SDS011;5061;49.068;12.058;2023-03-14T08:49:19;0.93;;;0.90;;
10041;SDS011;5061;49.068;12.058;2023-03-14T08:52:39;2.10;;;0.90;;
10041;SDS011;5061;49.068;12.058;2023-03-14T08:56:01;3.93;;;0.87;;
10041;SDS011;5061;49.068;12.058;2023-03-14T08:59:21;1.10;;;0.70;;
10041;SDS011;5061;49.068;12.058;2023-03-14T09:02:42;0.90;;;0.70;;
10041;SDS011;5061;49.068;12.058;2023-03-14T09:06:07;0.90;;;0.73;;
10041;SDS011;5061;49.068;12.058;2023-03-14T09:09:30;0.80;;;0.70;;
10041;SDS011;5061;49.068;12.058;2023-03-14T09:12:50;1.00;;;0.80;;
10041;SDS011;5061;49.068;12.058;2023-03-14T09:16:11;1.07;;;0.70;;
10041;SDS011;5061;49.068;12.058;2023-03-14T09:19:32;0.80;;;0.70;;
10041;SDS011;5061;49.068;12.058;2023-03-14T09:22:53;0.80;;;0.80;;
10041;SDS011;5061;49.068;12.058;2023-03-14T09:26:13;1.30;;;0.90;;
10041;SDS011;5061;49.068;12.058;2023-03-14T09:29:34;1.10;;;0.80;;
10041;SDS011;5061;49.068;12.058;2023-03-14T09:32:55;1.13;;;1.03;;
10041;SDS011;5061;49.068;12.058;2023-03-14T09:36:17;0.83;;;0.77;;
10041;SDS011;5061;49.068;12.058;2023-03-14T09:39:37;0.90;;;0.70;;
10041;SDS011;5061;49.068;12.058;2023-03-14T09:42:58;0.97;;;0.80;;
10041;SDS011;5061;49.068;12.058;2023-03-14T09:46:18;1.07;;;0.70;;
10041;SDS011;5061;49.068;12.058;2023-03-14T09:49:40;1.30;;;0.70;;
10041;SDS011;5061;49.068;12.058;2023-03-14T09:53:03;1.70;;;0.87;;
10041;SDS011;5061;49.068;12.058;2023-03-14T09:56:28;0.90;;;0.70;;
10041;SDS011;5061;49.068;12.058;2023-03-14T09:59:53;0.90;;;0.70;;
10041;SDS011;5061;49.068;12.058;2023-03-14T10:03:33;0.90;;;0.83;;
10041;SDS011;5061;49.068;12.058;2023-03-14T10:06:55;0.80;;;0.80;;
10041;SDS011;5061;49.068;12.058;2023-03-14T10:10:17;2.10;;;0.80;;
10041;SDS011;5061;49.068;12.058;2023-03-14T10:13:46;1.60;;;0.90;;
10041;SDS011;5061;49.068;12.058;2023-03-14T10:17:27;1.33;;;0.90;;
10041;SDS011;5061;49.068;12.058;2023-03-14T10:20:49;1.10;;;0.80;;
10041;SDS011;5061;49.068;12.058;2023-03-14T10:27:47;4.07;;;1.00;;
10041;SDS011;5061;49.068;12.058;2023-03-14T10:31:07;0.97;;;0.87;;
10041;SDS011;5061;49.068;12.058;2023-03-14T10:34:35;1.10;;;0.80;;
10041;SDS011;5061;49.068;12.058;2023-03-14T10:37:58;0.77;;;0.73;;
10041;SDS011;5061;49.068;12.058;2023-03-14T10:41:24;1.00;;;0.87;;
10041;SDS011;5061;49.068;12.058;2023-03-14T10:44:46;1.20;;;0.90;;
10041;SDS011;5061;49.068;12.058;2023-03-14T10:51:51;1.23;;;0.80;;
10041;SDS011;5061;49.068;12.058;2023-03-14T10:55:12;0.90;;;0.70;;
10041;SDS011;5061;49.068;12.058;2023-03-14T10:58:35;1.57;;;0.77;;
10041;SDS011;5061;49.068;12.058;2023-03-14T11:02:14;2.17;;;0.90;;
10041;SDS011;5061;49.068;12.058;2023-03-14T11:05:56;0.80;;;0.70;;
10041;SDS011;5061;49.068;12.058;2023-03-14T11:16:54;0.90;;;0.80;;
10041;SDS011;5061;49.068;12.058;2023-03-14T11:20:22;1.00;;;0.80;;
10041;SDS011;5061;49.068;12.058;2023-03-14T11:31:03;0.80;;;0.70;;
10041;SDS011;5061;49.068;12.058;2023-03-14T11:34:47;1.30;;;0.87;;
10041;SDS011;5061;49.068;12.058;2023-03-14T11:38:56;1.20;;;0.80;;
10041;SDS011;5061;49.068;12.058;2023-03-14T11:41:57;1.20;;;0.80;;
10041;SDS011;5061;49.068;12.058;2023-03-14T11:45:20;1.93;;;0.80;;
10041;SDS011;5061;49.068;12.058;2023-03-14T11:49:03;0.90;;;0.90;;
10041;SDS011;5061;49.068;12.058;2023-03-14T11:56:32;1.00;;;0.90;;
10041;SDS011;5061;49.068;12.058;2023-03-14T12:11:35;1.37;;;0.70;;
10041;SDS011;5061;49.068;12.058;2023-03-14T12:15:06;2.23;;;0.80;;
10041;SDS011;5061;49.068;12.058;2023-03-14T12:18:39;1.10;;;0.70;;
10041;SDS011;5061;49.068;12.058;2023-03-14T12:25:45;2.83;;;0.80;;
10041;SDS011;5061;49.068;12.058;2023-03-14T12:29:25;0.70;;;0.70;;
10041;SDS011;5061;49.068;12.058;2023-03-14T12:40:21;0.90;;;0.70;;
10041;SDS011;5061;49.068;12.058;2023-03-14T12:43:51;0.80;;;0.73;;
10041;SDS011;5061;49.068;12.058;2023-03-14T12:51:03;0.80;;;0.70;;
10041;SDS011;5061;49.068;12.058;2023-03-14T12:54:46;1.10;;;0.73;;
10041;SDS011;5061;49.068;12.058;2023-03-14T13:01:47;0.93;;;0.70;;
10041;SDS011;5061;49.068;12.058;2023-03-14T13:05:15;2.50;;;0.80;;
10041;SDS011;5061;49.068;12.058;2023-03-14T13:08:44;0.90;;;0.70;;
10041;SDS011;5061;49.068;12.058;2023-03-14T13:12:14;0.70;;;0.70;;
10041;SDS011;5061;49.068;12.058;2023-03-14T13:15:41;0.80;;;0.70;;
10041;SDS011;5061;49.068;12.058;2023-03-14T13:19:09;0.90;;;0.70;;
10041;SDS011;5061;49.068;12.058;2023-03-14T13:22:37;1.90;;;1.03;;
10041;SDS011;5061;49.068;12.058;2023-03-14T13:25:59;0.90;;;0.80;;
10041;SDS011;5061;49.068;12.058;2023-03-14T13:29:21;1.63;;;0.80;;
10041;SDS011;5061;49.068;12.058;2023-03-14T13:32:47;0.97;;;0.70;;
10041;SDS011;5061;49.068;12.058;2023-03-14T13:36:09;0.87;;;0.83;;
10041;SDS011;5061;49.068;12.058;2023-03-14T13:39:30;0.80;;;0.70;;
10041;SDS011;5061;49.068;12.058;2023-03-14T13:43:13;1.93;;;0.90;;
10041;SDS011;5061;49.068;12.058;2023-03-14T13:46:35;1.07;;;0.90;;
10041;SDS011;5061;49.068;12.058;2023-03-14T13:49:57;1.10;;;0.90;;
10041;SDS011;5061;49.068;12.058;2023-03-14T13:53:18;0.80;;;0.70;;
10041;SDS011;5061;49.068;12.058;2023-03-14T13:56:39;0.83;;;0.73;;
10041;SDS011;5061;49.068;12.058;2023-03-14T14:00:05;2.60;;;0.80;;
10041;SDS011;5061;49.068;12.058;2023-03-14T14:03:33;0.93;;;0.80;;
10041;SDS011;5061;49.068;12.058;2023-03-14T14:06:58;1.00;;;0.90;;
10041;SDS011;5061;49.068;12.058;2023-03-14T14:10:20;0.90;;;0.80;;
10041;SDS011;5061;49.068;12.058;2023-03-14T14:13:41;0.70;;;0.60;;
10041;SDS011;5061;49.068;12.058;2023-03-14T14:17:03;7.23;;;0.80;;
10041;SDS011;5061;49.068;12.058;2023-03-14T14:20:28;0.70;;;0.60;;
10041;SDS011;5061;49.068;12.058;2023-03-14T14:23:52;0.90;;;0.70;;
10041;SDS011;5061;49.068;12.058;2023-03-14T14:27:17;2.50;;;0.73;;
10041;SDS011;5061;49.068;12.058;2023-03-14T14:30:44;1.67;;;0.70;;
10041;SDS011;5061;49.068;12.058;2023-03-14T14:34:17;4.30;;;0.70;;
10041;SDS011;5061;49.068;12.058;2023-03-14T14:37:43;1.83;;;0.90;;
10041;SDS011;5061;49.068;12.058;2023-03-14T14:41:04;2.13;;;0.80;;
10041;SDS011;5061;49.068;12.058;2023-03-14T14:44:29;0.70;;;0.70;;
10041;SDS011;5061;49.068;12.058;2023-03-14T14:47:54;0.77;;;0.70;;
10041;SDS011;5061;49.068;12.058;2023-03-14T14:51:26;0.77;;;0.67;;
10041;SDS011;5061;49.068;12.058;2023-03-14T14:54:57;1.47;;;0.70;;
10041;SDS011;5061;49.068;12.058;2023-03-14T14:58:23;1.00;;;0.70;;
10041;SDS011;5061;49.068;12.058;2023-03-14T15:01:46;1.10;;;1.00;;
10041;SDS011;5061;49.068;12.058;2023-03-14T15:05:11;1.33;;;0.70;;
10041;SDS011;5061;49.068;12.058;2023-03-14T15:08:37;0.70;;;0.70;;
10041;SDS011;5061;49.068;12.058;2023-03-14T15:11:58;0.90;;;0.70;;
10041;SDS011;5061;49.068;12.058;2023-03-14T15:15:18;1.00;;;0.80;;
10041;SDS011;5061;49.068;12.058;2023-03-14T15:18:39;1.53;;;0.90;;
10041;SDS011;5061;49.068;12.058;2023-03-14T15:22:00;0.80;;;0.70;;
10041;SDS011;5061;49.068;12.058;2023-03-14T15:25:20;1.63;;;1.10;;
10041;SDS011;5061;49.068;12.058;2023-03-14T15:28:41;6.97;;;0.97;;
10041;SDS011;5061;49.068;12.058;2023-03-14T15:32:02;1.00;;;0.90;;
10041;SDS011;5061;49.068;12.058;2023-03-14T15:35:23;1.10;;;0.90;;
10041;SDS011;5061;49.068;12.058;2023-03-14T15:38:43;1.20;;;1.10;;
10041;SDS011;5061;49.068;12.058;2023-03-14T15:42:04;1.07;;;0.97;;
10041;SDS011;5061;49.068;12.058;2023-03-14T15:45:25;1.10;;;0.83;;
10041;SDS011;5061;49.068;12.058;2023-03-14T15:48:46;1.10;;;1.00;;
10041;SDS011;5061;49.068;12.058;2023-03-14T15:52:07;1.33;;;1.13;;
10041;SDS011;5061;49.068;12.058;2023-03-14T15:55:28;1.30;;;1.20;;
10041;SDS011;5061;49.068;12.058;2023-03-14T15:58:48;2.07;;;1.30;;
10041;SDS011;5061;49.068;12.058;2023-03-14T16:02:11;2.60;;;1.27;;
10041;SDS011;5061;49.068;12.058;2023-03-14T16:05:33;1.97;;;1.10;;
10041;SDS011;5061;49.068;12.058;2023-03-14T16:08:54;1.43;;;1.33;;
10041;SDS011;5061;49.068;12.058;2023-03-14T16:12:15;1.30;;;0.90;;
10041;SDS011;5061;49.068;12.058;2023-03-14T16:15:36;1.20;;;1.10;;
10041;SDS011;5061;49.068;12.058;2023-03-14T16:18:56;2.40;;;1.17;;
10041;SDS011;5061;49.068;12.058;2023-03-14T16:22:17;1.70;;;1.20;;
10041;SDS011;5061;49.068;12.058;2023-03-14T16:25:38;1.20;;;1.10;;
10041;SDS011;5061;49.068;12.058;2023-03-14T16:28:59;4.10;;;1.23;;
10041;SDS011;5061;49.068;12.058;2023-03-14T16:32:20;4.60;;;1.17;;
10041;SDS011;5061;49.068;12.058;2023-03-14T16:35:40;1.40;;;1.03;;
10041;SDS011;5061;49.068;12.058;2023-03-14T16:39:01;1.20;;;0.93;;
10041;SDS011;5061;49.068;12.058;2023-03-14T16:42:22;2.03;;;1.00;;
10041;SDS011;5061;49.068;12.058;2023-03-14T16:45:43;2.67;;;1.37;;
10041;SDS011;5061;49.068;12.058;2023-03-14T16:49:04;1.07;;;0.93;;
10041;SDS011;5061;49.068;12.058;2023-03-14T16:52:25;1.93;;;1.10;;
10041;SDS011;5061;49.068;12.058;2023-03-14T16:55:46;1.67;;;0.90;;
10041;SDS011;5061;49.068;12.058;2023-03-14T16:59:06;1.20;;;0.90;;
10041;SDS011;5061;49.068;12.058;2023-03-14T17:02:27;2.03;;;1.10;;
10041;SDS011;5061;49.068;12.058;2023-03-14T17:05:48;1.20;;;0.93;;
10041;SDS011;5061;49.068;12.058;2023-03-14T17:09:11;1.57;;;0.90;;
10041;SDS011;5061;49.068;12.058;2023-03-14T17:12:31;1.10;;;1.00;;
10041;SDS011;5061;49.068;12.058;2023-03-14T17:15:53;1.30;;;1.20;;
10041;SDS011;5061;49.068;12.058;2023-03-14T17:19:14;1.83;;;0.90;;
10041;SDS011;5061;49.068;12.058;2023-03-14T17:22:35;1.80;;;1.10;;
10041;SDS011;5061;49.068;12.058;2023-03-14T17:25:55;2.40;;;0.90;;
10041;SDS011;5061;49.068;12.058;2023-03-14T17:29:16;1.20;;;0.80;;
10041;SDS011;5061;49.068;12.058;2023-03-14T17:32:37;1.00;;;0.90;;
10041;SDS011;5061;49.068;12.058;2023-03-14T17:35:58;1.40;;;1.07;;
10041;SDS011;5061;49.068;12.058;2023-03-14T17:39:22;1.27;;;0.90;;
10041;SDS011;5061;49.068;12.058;2023-03-14T17:42:48;2.20;;;1.20;;
10041;SDS011;5061;49.068;12.058;2023-03-14T17:46:10;2.47;;;0.90;;
10041;SDS011;5061;49.068;12.058;2023-03-14T17:49:34;2.17;;;1.03;;
10041;SDS011;5061;49.068;12.058;2023-03-14T17:52:56;1.63;;;1.00;;
10041;SDS011;5061;49.068;12.058;2023-03-14T17:56:20;2.50;;;0.90;;
10041;SDS011;5061;49.068;12.058;2023-03-14T17:59:42;2.27;;;1.60;;
10041;SDS011;5061;49.068;12.058;2023-03-14T18:03:03;1.87;;;0.97;;
10041;SDS011;5061;49.068;12.058;2023-03-14T18:06:23;2.70;;;1.17;;
10041;SDS011;5061;49.068;12.058;2023-03-14T18:09:46;3.13;;;1.00;;
10041;SDS011;5061;49.068;12.058;2023-03-14T18:13:06;2.30;;;1.20;;
10041;SDS011;5061;49.068;12.058;2023-03-14T18:16:27;1.93;;;1.33;;
10041;SDS011;5061;49.068;12.058;2023-03-14T18:19:48;1.60;;;0.90;;
10041;SDS011;5061;49.068;12.058;2023-03-14T18:23:08;4.27;;;0.90;;
10041;SDS011;5061;49.068;12.058;2023-03-14T18:26:29;3.10;;;1.60;;
10041;SDS011;5061;49.068;12.058;2023-03-14T18:29:50;4.40;;;1.53;;
10041;SDS011;5061;49.068;12.058;2023-03-14T18:33:11;3.17;;;1.40;;
10041;SDS011;5061;49.068;12.058;2023-03-14T18:36:33;1.57;;;0.90;;
10041;SDS011;5061;49.068;12.058;2023-03-14T18:39:54;2.30;;;1.30;;
10041;SDS011;5061;49.068;12.058;2023-03-14T18:43:14;4.17;;;1.17;;
10041;SDS011;5061;49.068;12.058;2023-03-14T18:46:35;2.80;;;1.10;;
10041;SDS011;5061;49.068;12.058;2023-03-14T18:49:56;1.70;;;1.60;;
10041;SDS011;5061;49.068;12.058;2023-03-14T18:53:16;2.67;;;1.40;;
10041;SDS011;5061;49.068;12.058;2023-03-14T18:56:40;7.03;;;1.30;;
10041;SDS011;5061;49.068;12.058;2023-03-14T19:00:02;1.57;;;1.13;;
10041;SDS011;5061;49.068;12.058;2023-03-14T19:03:24;2.83;;;1.10;;
10041;SDS011;5061;49.068;12.058;2023-03-14T19:06:45;1.37;;;1.27;;
10041;SDS011;5061;49.068;12.058;2023-03-14T19:10:05;1.63;;;1.20;;
10041;SDS011;5061;49.068;12.058;2023-03-14T19:13:26;1.20;;;1.03;;
10041;SDS011;5061;49.068;12.058;2023-03-14T19:16:49;8.33;;;1.10;;
10041;SDS011;5061;49.068;12.058;2023-03-14T19:20:11;3.80;;;1.20;;
10041;SDS011;5061;49.068;12.058;2023-03-14T19:23:32;1.70;;;1.13;;
10041;SDS011;5061;49.068;12.058;2023-03-14T19:26:54;4.20;;;1.17;;
10041;SDS011;5061;49.068;12.058;2023-03-14T19:30:15;1.30;;;1.00;;
10041;SDS011;5061;49.068;12.058;2023-03-14T19:33:36;2.50;;;1.10;;
10041;SDS011;5061;49.068;12.058;2023-03-14T19:36:57;1.93;;;1.20;;
10041;SDS011;5061;49.068;12.058;2023-03-14T19:40:18;2.00;;;1.13;;
10041;SDS011;5061;49.068;12.058;2023-03-14T19:43:43;1.47;;;1.00;;
10041;SDS011;5061;49.068;12.058;2023-03-14T19:47:05;1.97;;;1.37;;
10041;SDS011;5061;49.068;12.058;2023-03-14T19:50:26;2.17;;;1.30;;
10041;SDS011;5061;49.068;12.058;2023-03-14T19:53:47;1.97;;;1.00;;
10041;SDS011;5061;49.068;12.058;2023-03-14T19:57:08;1.63;;;1.10;;
10041;SDS011;5061;49.068;12.058;2023-03-14T20:00:29;7.33;;;1.40;;
10041;SDS011;5061;49.068;12.058;2023-03-14T20:03:50;2.70;;;1.30;;
10041;SDS011;5061;49.068;12.058;2023-03-14T20:07:12;2.40;;;1.03;;
10041;SDS011;5061;49.068;12.058;2023-03-14T20:10:34;3.27;;;1.30;;
10041;SDS011;5061;49.068;12.058;2023-03-14T20:13:55;2.80;;;1.30;;
10041;SDS011;5061;49.068;12.058;2023-03-14T20:17:16;2.43;;;1.40;;
10041;SDS011;5061;49.068;12.058;2023-03-14T20:20:38;2.40;;;1.37;;
10041;SDS011;5061;49.068;12.058;2023-03-14T20:24:00;2.13;;;1.37;;
10041;SDS011;5061;49.068;12.058;2023-03-14T20:27:22;1.60;;;1.20;;
10041;SDS011;5061;49.068;12.058;2023-03-14T20:30:42;5.03;;;1.20;;
10041;SDS011;5061;49.068;12.058;2023-03-14T20:34:03;3.07;;;1.30;;
10041;SDS011;5061;49.068;12.058;2023-03-14T20:37:24;4.10;;;1.00;;
10041;SDS011;5061;49.068;12.058;2023-03-14T20:40:45;1.70;;;1.20;;
10041;SDS011;5061;49.068;12.058;2023-03-14T20:44:07;2.17;;;1.20;;
10041;SDS011;5061;49.068;12.058;2023-03-14T20:47:33;1.43;;;1.10;;
10041;SDS011;5061;49.068;12.058;2023-03-14T20:50:54;1.13;;;0.80;;
10041;SDS011;5061;49.068;12.058;2023-03-14T20:54:16;3.10;;;1.30;;
10041;SDS011;5061;49.068;12.058;2023-03-14T20:57:37;1.60;;;1.20;;
10041;SDS011;5061;49.068;12.058;2023-03-14T21:00:59;2.00;;;1.10;;
10041;SDS011;5061;49.068;12.058;2023-03-14T21:04:23;1.43;;;1.13;;
10041;SDS011;5061;49.068;12.058;2023-03-14T21:07:44;1.77;;;1.37;;
10041;SDS011;5061;49.068;12.058;2023-03-14T21:11:05;1.77;;;1.00;;
10041;SDS011;5061;49.068;12.058;2023-03-14T21:14:25;1.47;;;1.37;;
10041;SDS011;5061;49.068;12.058;2023-03-14T21:17:49;1.23;;;1.00;;
10041;SDS011;5061;49.068;12.058;2023-03-14T21:21:12;0.90;;;0.80;;
10041;SDS011;5061;49.068;12.058;2023-03-14T21:24:33;1.13;;;1.03;;
10041;SDS011;5061;49.068;12.058;2023-03-14T21:27:54;1.93;;;0.90;;
10041;SDS011;5061;49.068;12.058;2023-03-14T21:31:15;1.40;;;1.00;;